createdAt,value
2019-01-21T00:00:37.579Z,-4.30
2019-01-21T00:03:13.957Z,-4.40
2019-01-21T00:05:36.718Z,-4.40
2019-01-21T00:08:05.628Z,-4.40
2019-01-21T00:10:34.379Z,-4.40
2019-01-21T00:13:02.954Z,-4.40
2019-01-21T00:15:31.625Z,-4.30
2019-01-21T00:18:00.338Z,-4.30
2019-01-21T00:20:28.929Z,-4.30
2019-01-21T00:22:57.510Z,-4.30
2019-01-21T00:25:26.103Z,-4.30
2019-01-21T00:27:54.746Z,-4.30
2019-01-21T00:30:23.346Z,-4.40
2019-01-21T00:32:51.923Z,-4.40
2019-01-21T00:35:20.519Z,-4.40
2019-01-21T00:37:49.090Z,-4.30
2019-01-21T00:40:18.241Z,-4.30
2019-01-21T00:42:46.870Z,-4.30
2019-01-21T00:45:15.594Z,-4.30
2019-01-21T00:47:44.169Z,-4.30
2019-01-21T00:50:13.726Z,-4.40
2019-01-21T00:52:42.290Z,-4.40
2019-01-21T00:55:12.859Z,-4.50
2019-01-21T00:57:41.556Z,-4.60
2019-01-21T01:00:22.393Z,-4.60
2019-01-21T01:02:51.030Z,-4.70
2019-01-21T01:05:20.258Z,-4.70
2019-01-21T01:07:48.829Z,-4.70
2019-01-21T01:10:17.565Z,-4.70
2019-01-21T01:12:46.133Z,-4.70
2019-01-21T01:15:15.337Z,-4.80
2019-01-21T01:17:43.922Z,-4.80
2019-01-21T01:20:14.734Z,-4.80
2019-01-21T01:22:43.459Z,-4.80
2019-01-21T01:25:12.270Z,-4.90
2019-01-21T01:27:40.853Z,-4.80
2019-01-21T01:30:12.096Z,-4.80
2019-01-21T01:32:40.714Z,-4.80
2019-01-21T01:35:11.012Z,-4.80
2019-01-21T01:37:39.613Z,-4.80
2019-01-21T01:40:11.523Z,-4.80
2019-01-21T01:42:40.190Z,-4.90
2019-01-21T01:45:11.973Z,-4.90
2019-01-21T01:47:44.708Z,-4.90
2019-01-21T01:50:11.000Z,-4.90
2019-01-21T01:52:39.661Z,-4.90
2019-01-21T01:55:10.291Z,-4.90
2019-01-21T01:57:38.954Z,-5.00
2019-01-21T02:00:10.908Z,-5.00
2019-01-21T02:02:39.554Z,-5.10
2019-01-21T02:05:08.576Z,-5.10
2019-01-21T02:07:37.301Z,-5.10
2019-01-21T02:10:08.885Z,-5.10
2019-01-21T02:12:37.405Z,-5.00
2019-01-21T02:15:09.314Z,-5.10
2019-01-21T02:17:37.910Z,-5.10
2019-01-21T02:20:09.705Z,-5.10
2019-01-21T02:22:41.370Z,-5.10
2019-01-21T02:25:10.319Z,-5.10
2019-01-21T02:28:01.164Z,-5.10
2019-01-21T02:30:56.598Z,-5.10
2019-01-21T02:33:47.499Z,-5.10
2019-01-21T02:36:22.679Z,-5.20
2019-01-21T02:38:57.533Z,-5.30
2019-01-21T02:41:29.174Z,-5.30
2019-01-21T02:44:06.563Z,-5.30
2019-01-21T02:46:56.249Z,-5.30
2019-01-21T02:49:45.286Z,-5.20
2019-01-21T02:52:36.089Z,-5.20
2019-01-21T02:55:22.546Z,-5.30
2019-01-21T02:58:09.062Z,-5.20
2019-01-21T03:01:01.010Z,-5.30
2019-01-21T03:03:47.395Z,-5.30
2019-01-21T03:06:24.954Z,-5.40
2019-01-21T03:08:59.523Z,-5.40
2019-01-21T03:11:42.929Z,-5.40
2019-01-21T03:14:29.406Z,-5.50
2019-01-21T03:17:21.858Z,-5.40
2019-01-21T03:19:59.374Z,-5.20
2019-01-21T03:22:53.308Z,-5.40
2019-01-21T03:25:33.138Z,-5.40
2019-01-21T03:28:13.467Z,-5.30
2019-01-21T03:31:00.029Z,-5.40
2019-01-21T03:33:57.069Z,-5.40
2019-01-21T03:36:45.081Z,-5.30
2019-01-21T03:39:42.026Z,-5.40
2019-01-21T03:42:16.188Z,-5.40
2019-01-21T03:44:56.865Z,-5.40
2019-01-21T03:47:31.543Z,-5.40
2019-01-21T03:50:24.087Z,-5.50
2019-01-21T03:53:11.944Z,-5.60
2019-01-21T03:55:40.663Z,-5.50
2019-01-21T03:58:31.884Z,-5.50
2019-01-21T04:01:06.134Z,-5.50
2019-01-21T04:03:52.835Z,-5.60
2019-01-21T04:06:27.527Z,-5.60
2019-01-21T04:09:16.955Z,-5.60
2019-01-21T04:11:57.710Z,-5.50
2019-01-21T04:14:44.227Z,-5.60
2019-01-21T04:17:36.190Z,-5.50
2019-01-21T04:20:31.824Z,-5.60
2019-01-21T04:23:32.151Z,-5.50
2019-01-21T04:26:09.658Z,-5.60
2019-01-21T04:28:43.914Z,-5.60
2019-01-21T04:31:15.558Z,-5.60
2019-01-21T04:34:08.110Z,-5.50
2019-01-21T04:36:55.922Z,-5.50
2019-01-21T04:39:45.801Z,-5.40
2019-01-21T04:42:20.246Z,-5.30
2019-01-21T04:44:54.887Z,-5.30
2019-01-21T04:47:48.802Z,-5.30
2019-01-21T04:50:41.370Z,-5.20
2019-01-21T04:53:21.815Z,-5.20
2019-01-21T04:56:26.484Z,-5.20
2019-01-21T04:59:01.222Z,-5.00
2019-01-21T05:01:32.863Z,-5.00
2019-01-21T05:04:10.474Z,-4.90
2019-01-21T05:07:07.536Z,-5.00
2019-01-21T05:09:54.100Z,-5.00
2019-01-21T05:12:37.501Z,-5.10
2019-01-21T05:15:27.275Z,-5.30
2019-01-21T05:18:30.280Z,-5.40
2019-01-21T05:21:07.610Z,-5.30
2019-01-21T05:23:56.878Z,-5.40
2019-01-21T05:26:34.073Z,-5.40
2019-01-21T05:29:33.950Z,-5.50
2019-01-21T05:32:38.627Z,-5.50
2019-01-21T05:35:35.879Z,-5.50
2019-01-21T05:38:10.213Z,-5.50
2019-01-21T05:40:58.194Z,-5.50
2019-01-21T05:43:35.487Z,-5.50
2019-01-21T05:46:15.806Z,-5.50
2019-01-21T05:48:53.050Z,-5.50
2019-01-21T05:51:57.419Z,-5.40
2019-01-21T05:54:37.878Z,-5.40
2019-01-21T05:57:30.540Z,-5.30
2019-01-21T06:00:02.225Z,-5.30
2019-01-21T06:02:57.807Z,-5.20
2019-01-21T06:05:48.552Z,-5.20
2019-01-21T06:08:39.554Z,-5.30
2019-01-21T06:11:33.505Z,-5.30
2019-01-21T06:14:33.327Z,-5.30
2019-01-21T06:17:10.762Z,-5.40
2019-01-21T06:20:01.474Z,-5.40
2019-01-21T06:22:33.129Z,-5.40
2019-01-21T06:25:24.229Z,-5.30
2019-01-21T06:28:27.393Z,-5.40
2019-01-21T06:31:13.673Z,-5.30
2019-01-21T06:33:56.902Z,-5.30
2019-01-21T06:36:31.289Z,-5.40
2019-01-21T06:39:08.482Z,-5.30
2019-01-21T06:41:48.887Z,-5.40
2019-01-21T06:44:31.861Z,-5.40
2019-01-21T06:47:03.459Z,-5.50
2019-01-21T06:49:52.753Z,-5.60
2019-01-21T06:52:40.421Z,-5.60
2019-01-21T06:55:20.658Z,-5.60
2019-01-21T06:57:57.979Z,-5.70
2019-01-21T07:00:50.333Z,-5.60
2019-01-21T07:03:33.865Z,-5.60
2019-01-21T07:06:21.738Z,-5.60
2019-01-21T07:09:27.873Z,-5.60
2019-01-21T07:12:02.281Z,-5.60
2019-01-21T07:14:53.149Z,-5.40
2019-01-21T07:17:45.902Z,-5.40
2019-01-21T07:20:45.817Z,-5.40
2019-01-21T07:23:32.361Z,-5.40
2019-01-21T07:26:10.003Z,-5.40
2019-01-21T07:28:56.735Z,-5.40
2019-01-21T07:31:34.213Z,-5.50
2019-01-21T07:34:28.125Z,-5.50
2019-01-21T07:37:14.317Z,-5.60
2019-01-21T07:40:10.829Z,-5.60
2019-01-21T07:43:00.383Z,-5.60
2019-01-21T07:45:46.674Z,-5.60
2019-01-21T07:48:20.775Z,-5.60
2019-01-21T07:51:01.069Z,-5.50
2019-01-21T07:53:44.127Z,-5.40
2019-01-21T07:56:35.266Z,-5.40
2019-01-21T07:59:23.411Z,-5.40
2019-01-21T08:02:00.814Z,-5.30
2019-01-21T08:04:57.882Z,-5.30
2019-01-21T08:07:32.239Z,-5.40
2019-01-21T08:10:27.894Z,-5.30
2019-01-21T08:13:10.884Z,-5.30
2019-01-21T08:15:51.171Z,-5.20
2019-01-21T08:18:25.414Z,-5.10
2019-01-21T08:21:02.765Z,-5.00
2019-01-21T08:23:37.286Z,-4.90
2019-01-21T08:26:17.772Z,-4.80
2019-01-21T08:29:01.390Z,-4.70
2019-01-21T08:31:35.432Z,-4.50
2019-01-21T08:34:15.957Z,-4.60
2019-01-21T08:36:53.475Z,-4.50
2019-01-21T08:39:39.823Z,-4.40
2019-01-21T08:42:11.498Z,-4.30
2019-01-21T08:44:45.860Z,-4.30
2019-01-21T08:47:20.398Z,-4.20
2019-01-21T08:49:51.983Z,-4.10
2019-01-21T08:52:35.536Z,-4.00
2019-01-21T08:55:31.247Z,-3.90
2019-01-21T08:58:11.540Z,-3.80
2019-01-21T09:01:08.410Z,-3.70
2019-01-21T09:03:51.773Z,-3.60
2019-01-21T09:06:23.434Z,-3.60
2019-01-21T09:08:55.035Z,-3.40
2019-01-21T09:11:35.545Z,-3.40
2019-01-21T09:14:09.945Z,-3.40
2019-01-21T09:16:59.287Z,-3.30
2019-01-21T09:19:47.135Z,-3.20
2019-01-21T09:22:49.989Z,-3.10
2019-01-21T09:25:50.184Z,-3.00
2019-01-21T09:28:30.600Z,-2.80
2019-01-21T09:31:02.266Z,-2.70
2019-01-21T09:33:45.856Z,-2.60
2019-01-21T09:36:20.474Z,-2.50
2019-01-21T09:38:58.187Z,-2.50
2019-01-21T09:41:38.953Z,-2.30
2019-01-21T09:44:16.151Z,-2.20
2019-01-21T09:46:46.996Z,-2.10
2019-01-21T09:49:14.508Z,-2.00
2019-01-21T09:51:46.206Z,-1.90
2019-01-21T09:54:15.109Z,-1.70
2019-01-21T09:56:43.706Z,-1.60
2019-01-21T09:59:12.351Z,-1.60
2019-01-21T10:01:41.198Z,-1.50
2019-01-21T10:04:10.598Z,-1.40
2019-01-21T10:06:41.807Z,-1.30
2019-01-21T10:09:29.712Z,-1.20
2019-01-21T10:12:34.398Z,-1.10
2019-01-21T10:15:11.998Z,-1.10
2019-01-21T10:17:59.725Z,-0.90
2019-01-21T10:20:34.092Z,-0.90
2019-01-21T10:23:25.115Z,-0.80
2019-01-21T10:25:59.438Z,-0.90
2019-01-21T10:28:33.919Z,-0.80
2019-01-21T10:31:17.413Z,-0.70
2019-01-21T10:34:06.742Z,-0.80
2019-01-21T10:36:50.010Z,-0.80
2019-01-21T10:39:39.580Z,-0.70
2019-01-21T10:42:13.885Z,-0.60
2019-01-21T10:44:45.473Z,-0.60
2019-01-21T10:47:31.904Z,-0.50
2019-01-21T10:50:18.442Z,-0.40
2019-01-21T10:52:55.714Z,-0.30
2019-01-21T10:55:41.954Z,-0.30
2019-01-21T10:58:19.562Z,-0.30
2019-01-21T11:01:09.103Z,-0.20
2019-01-21T11:03:57.095Z,-0.20
2019-01-21T11:06:40.182Z,-0.10
2019-01-21T11:09:26.512Z,-0.10
2019-01-21T11:11:54.176Z,-0.10
2019-01-21T11:14:28.361Z,-0.10
2019-01-21T11:17:05.831Z,0.00
2019-01-21T11:19:52.357Z,0.10
2019-01-21T11:22:23.985Z,0.10
2019-01-21T11:25:16.296Z,0.20
2019-01-21T11:28:02.943Z,0.30
2019-01-21T11:30:49.476Z,0.30
2019-01-21T11:33:29.696Z,0.30
2019-01-21T11:36:07.017Z,0.30
2019-01-21T11:38:50.699Z,0.30
2019-01-21T11:41:25.014Z,0.40
2019-01-21T11:44:31.206Z,0.50
2019-01-21T11:47:11.565Z,0.40
2019-01-21T11:50:11.873Z,0.50
2019-01-21T11:52:43.538Z,0.50
2019-01-21T11:55:26.837Z,0.50
2019-01-21T11:58:14.596Z,0.60
2019-01-21T12:00:48.975Z,0.60
2019-01-21T12:03:29.042Z,0.60
2019-01-21T12:05:59.672Z,0.70
2019-01-21T12:09:01.304Z,0.70
2019-01-21T12:11:54.022Z,0.80
2019-01-21T12:14:46.125Z,0.80
2019-01-21T12:17:26.383Z,0.80
2019-01-21T12:20:00.613Z,0.80
2019-01-21T12:22:53.223Z,0.80
2019-01-21T12:25:24.918Z,0.80
2019-01-21T12:27:59.128Z,0.80
2019-01-21T12:30:30.803Z,0.90
2019-01-21T12:33:08.230Z,0.90
2019-01-21T12:35:54.771Z,0.90
2019-01-21T12:38:41.142Z,0.90
2019-01-21T12:41:28.990Z,0.90
2019-01-21T12:44:15.696Z,0.90
2019-01-21T12:46:49.845Z,1.00
2019-01-21T12:49:27.201Z,1.10
2019-01-21T12:52:04.642Z,1.10
2019-01-21T12:54:48.172Z,1.20
2019-01-21T12:57:34.566Z,1.10
2019-01-21T13:00:20.932Z,1.20
2019-01-21T13:03:09.939Z,1.20
2019-01-21T13:05:59.249Z,1.20
2019-01-21T13:08:30.838Z,1.30
2019-01-21T13:11:05.171Z,1.30
2019-01-21T13:13:39.843Z,1.30
2019-01-21T13:16:11.488Z,1.30
2019-01-21T13:19:00.858Z,1.30
2019-01-21T13:21:50.030Z,1.30
2019-01-21T13:24:26.826Z,1.30
2019-01-21T13:26:58.413Z,1.30
2019-01-21T13:29:32.435Z,1.30
2019-01-21T13:32:21.909Z,1.20
2019-01-21T13:35:17.318Z,1.20
2019-01-21T13:37:51.794Z,1.20
2019-01-21T13:40:31.838Z,1.10
2019-01-21T13:43:19.794Z,1.20
2019-01-21T13:46:21.697Z,1.20
2019-01-21T13:49:05.222Z,1.20
2019-01-21T13:51:39.296Z,1.20
2019-01-21T13:54:28.874Z,1.20
2019-01-21T13:57:21.981Z,1.30
2019-01-21T14:00:17.398Z,1.30
2019-01-21T14:02:51.715Z,1.30
2019-01-21T14:05:57.514Z,1.20
2019-01-21T14:08:37.667Z,1.30
2019-01-21T14:11:09.232Z,1.20
2019-01-21T14:13:46.502Z,1.20
2019-01-21T14:16:26.665Z,1.30
2019-01-21T14:19:07.106Z,1.20
2019-01-21T14:21:57.524Z,1.20
2019-01-21T14:24:48.520Z,1.20
2019-01-21T14:27:20.189Z,1.20
2019-01-21T14:30:09.625Z,1.20
2019-01-21T14:32:43.849Z,1.20
2019-01-21T14:35:33.278Z,1.10
2019-01-21T14:38:07.970Z,1.10
2019-01-21T14:40:42.486Z,1.00
2019-01-21T14:43:30.646Z,1.00
2019-01-21T14:46:18.623Z,1.00
2019-01-21T14:48:53.156Z,1.00
2019-01-21T14:51:30.835Z,1.00
2019-01-21T14:54:14.437Z,1.00
2019-01-21T14:56:49.143Z,0.90
2019-01-21T14:59:32.580Z,0.90
2019-01-21T15:02:15.903Z,0.80
2019-01-21T15:04:53.227Z,0.80
2019-01-21T15:07:24.899Z,0.70
2019-01-21T15:10:11.171Z,0.70
2019-01-21T15:12:42.801Z,0.60
2019-01-21T15:15:33.884Z,0.60
2019-01-21T15:18:23.033Z,0.50
2019-01-21T15:20:57.771Z,0.40
2019-01-21T15:23:39.977Z,0.30
2019-01-21T15:26:20.364Z,0.20
2019-01-21T15:28:54.522Z,0.10
2019-01-21T15:31:26.183Z,0.10
2019-01-21T15:34:00.588Z,0.10
2019-01-21T15:36:48.611Z,0.00
2019-01-21T15:39:32.139Z,-0.10
2019-01-21T15:42:20.129Z,-0.20
2019-01-21T15:45:12.149Z,-0.30
2019-01-21T15:47:43.883Z,-0.30
2019-01-21T15:50:18.278Z,-0.40
2019-01-21T15:52:49.942Z,-0.50
2019-01-21T15:55:49.791Z,-0.50
2019-01-21T15:58:30.025Z,-0.50
2019-01-21T16:01:04.406Z,-0.60
2019-01-21T16:03:46.541Z,-0.60
2019-01-21T16:06:33.033Z,-0.60
2019-01-21T16:09:13.384Z,-0.60
2019-01-21T16:11:48.148Z,-0.70
2019-01-21T16:14:17.774Z,-0.80
2019-01-21T16:16:54.970Z,-0.90
2019-01-21T16:19:23.541Z,-0.90
2019-01-21T16:22:03.377Z,-1.00
2019-01-21T16:24:54.534Z,-1.00
2019-01-21T16:27:59.227Z,-1.10
2019-01-21T16:30:33.548Z,-1.10
2019-01-21T16:33:21.778Z,-1.20
2019-01-21T16:35:59.207Z,-1.20
2019-01-21T16:38:27.788Z,-1.20
2019-01-21T16:41:15.838Z,-1.20
2019-01-21T16:43:44.433Z,-1.30
2019-01-21T16:46:12.975Z,-1.30
2019-01-21T16:48:41.637Z,-1.30
2019-01-21T16:51:10.207Z,-1.40
2019-01-21T16:53:38.805Z,-1.40
2019-01-21T16:56:07.533Z,-1.50
2019-01-21T16:58:36.057Z,-1.50
2019-01-21T17:01:04.656Z,-1.50
2019-01-21T17:03:33.255Z,-1.50
2019-01-21T17:06:01.843Z,-1.50
2019-01-21T17:08:30.430Z,-1.50
2019-01-21T17:10:59.013Z,-1.50
2019-01-21T17:13:27.538Z,-1.60
2019-01-21T17:15:56.109Z,-1.60
2019-01-21T17:18:24.701Z,-1.60
2019-01-21T17:20:53.201Z,-1.60
2019-01-21T17:23:21.794Z,-1.60
2019-01-21T17:25:50.361Z,-1.70
2019-01-21T17:28:18.889Z,-1.60
2019-01-21T17:30:47.457Z,-1.70
2019-01-21T17:33:15.977Z,-1.70
2019-01-21T17:35:44.473Z,-1.70
2019-01-21T17:38:13.154Z,-1.70
2019-01-21T17:40:41.736Z,-1.70
2019-01-21T17:43:10.321Z,-1.70
2019-01-21T17:45:38.894Z,-1.70
2019-01-21T17:48:07.573Z,-1.80
2019-01-21T17:50:36.130Z,-1.70
2019-01-21T17:53:04.746Z,-1.70
2019-01-21T17:55:33.316Z,-1.70
2019-01-21T17:58:01.882Z,-1.70
2019-01-21T18:00:30.474Z,-1.70
2019-01-21T18:02:59.050Z,-1.70
2019-01-21T18:05:27.561Z,-1.70
2019-01-21T18:07:56.145Z,-1.60
2019-01-21T18:10:24.725Z,-1.70
2019-01-21T18:12:53.289Z,-1.60
2019-01-21T18:15:21.870Z,-1.60
2019-01-21T18:17:50.453Z,-1.60
2019-01-21T18:20:21.174Z,-1.60
2019-01-21T18:22:49.730Z,-1.60
2019-01-21T18:25:18.309Z,-1.60
2019-01-21T18:27:46.878Z,-1.50
2019-01-21T18:30:20.935Z,-1.50
2019-01-21T18:32:49.529Z,-1.50
2019-01-21T18:35:18.189Z,-1.50
2019-01-21T18:37:46.841Z,-1.50
2019-01-21T18:40:17.859Z,-1.50
2019-01-21T18:42:46.573Z,-1.50
2019-01-21T18:45:18.107Z,-1.50
2019-01-21T18:47:46.919Z,-1.50
2019-01-21T18:50:15.878Z,-1.50
2019-01-21T18:52:44.452Z,-1.50
2019-01-21T18:55:13.109Z,-1.50
2019-01-21T18:57:41.612Z,-1.50
2019-01-21T19:00:21.869Z,-1.50
2019-01-21T19:02:50.534Z,-1.50
2019-01-21T19:05:19.761Z,-1.50
2019-01-21T19:07:48.262Z,-1.60
2019-01-21T19:10:18.386Z,-1.60
2019-01-21T19:12:46.995Z,-1.50
2019-01-21T19:15:21.088Z,-1.50
2019-01-21T19:17:49.957Z,-1.50
2019-01-21T19:20:18.689Z,-1.50
2019-01-21T19:22:47.330Z,-1.50
2019-01-21T19:25:16.061Z,-1.50
2019-01-21T19:27:44.712Z,-1.50
2019-01-21T19:30:18.973Z,-1.50
2019-01-21T19:32:47.663Z,-1.50
2019-01-21T19:35:22.155Z,-1.50
2019-01-21T19:37:50.753Z,-1.50
2019-01-21T19:40:21.065Z,-1.50
2019-01-21T19:42:49.807Z,-1.50
2019-01-21T19:45:19.113Z,-1.50
2019-01-21T19:47:47.635Z,-1.50
2019-01-21T19:50:21.453Z,-1.60
2019-01-21T19:52:50.056Z,-1.60
2019-01-21T19:55:24.542Z,-1.60
2019-01-21T19:57:53.165Z,-1.60
2019-01-21T20:00:23.063Z,-1.60
2019-01-21T20:02:51.654Z,-1.70
2019-01-21T20:05:20.372Z,-1.80
2019-01-21T20:07:49.111Z,-1.80
2019-01-21T20:10:24.738Z,-1.80
2019-01-21T20:12:53.465Z,-1.90
2019-01-21T20:15:22.269Z,-1.90
2019-01-21T20:17:50.922Z,-2.00
2019-01-21T20:20:22.293Z,-2.00
2019-01-21T20:22:57.249Z,-2.00
2019-01-21T20:25:21.101Z,-2.00
2019-01-21T20:27:49.611Z,-2.00
2019-01-21T20:30:23.087Z,-2.10
2019-01-21T20:32:51.760Z,-2.10
2019-01-21T20:35:20.458Z,-2.10
2019-01-21T20:37:49.122Z,-2.20
2019-01-21T20:40:26.252Z,-2.20
2019-01-21T20:42:54.814Z,-2.10
2019-01-21T20:45:23.475Z,-2.10
2019-01-21T20:47:52.277Z,-2.00
2019-01-21T20:50:26.525Z,-1.90
2019-01-21T20:52:55.184Z,-1.90
2019-01-21T20:55:24.031Z,-1.80
2019-01-21T20:57:52.648Z,-1.70
2019-01-21T21:00:23.940Z,-1.50
2019-01-21T21:02:53.607Z,-1.50
2019-01-21T21:05:22.230Z,-1.40
2019-01-21T21:07:50.966Z,-1.40
2019-01-21T21:10:19.677Z,-1.40
2019-01-21T21:12:48.387Z,-1.40
2019-01-21T21:15:19.606Z,-1.40
2019-01-21T21:17:48.198Z,-1.40
2019-01-21T21:20:16.846Z,-1.40
2019-01-21T21:22:45.678Z,-1.40
2019-01-21T21:25:17.003Z,-1.40
2019-01-21T21:27:45.661Z,-1.40
2019-01-21T21:30:22.797Z,-1.40
2019-01-21T21:32:51.473Z,-1.40
2019-01-21T21:35:20.412Z,-1.40
2019-01-21T21:37:49.003Z,-1.50
2019-01-21T21:40:19.615Z,-1.50
2019-01-21T21:42:48.374Z,-1.50
2019-01-21T21:45:18.585Z,-1.50
2019-01-21T21:47:47.312Z,-1.50
2019-01-21T21:50:27.218Z,-1.50
2019-01-21T21:52:55.863Z,-1.40
2019-01-21T21:55:24.430Z,-1.40
2019-01-21T21:57:53.090Z,-1.30
2019-01-21T22:00:24.586Z,-1.30
2019-01-21T22:02:53.231Z,-1.30
2019-01-21T22:05:22.173Z,-1.30
2019-01-21T22:07:50.917Z,-1.20
2019-01-21T22:10:24.652Z,-1.20
2019-01-21T22:12:53.362Z,-1.10
2019-01-21T22:15:23.306Z,-1.10
2019-01-21T22:17:51.942Z,-1.10
2019-01-21T22:20:22.867Z,-1.10
2019-01-21T22:22:51.683Z,-1.10
2019-01-21T22:25:20.537Z,-1.10
2019-01-21T22:27:49.118Z,-1.10
2019-01-21T22:30:20.509Z,-1.20
2019-01-21T22:32:49.261Z,-1.20
2019-01-21T22:35:17.856Z,-1.20
2019-01-21T22:37:46.799Z,-1.30
2019-01-21T22:40:17.426Z,-1.30
2019-01-21T22:42:46.087Z,-1.30
2019-01-21T22:45:16.444Z,-1.40
2019-01-21T22:47:45.053Z,-1.40
2019-01-21T22:50:15.296Z,-1.40
2019-01-21T22:52:44.037Z,-1.30
2019-01-21T22:55:14.781Z,-1.30
2019-01-21T22:57:43.348Z,-1.30
2019-01-21T23:00:40.022Z,-1.30
2019-01-21T23:03:08.661Z,-1.30
2019-01-21T23:05:37.496Z,-1.20
2019-01-21T23:08:06.209Z,-1.20
2019-01-21T23:10:35.089Z,-1.10
2019-01-21T23:13:03.734Z,-1.10
2019-01-21T23:15:32.325Z,-1.10
2019-01-21T23:18:04.263Z,-1.10
2019-01-21T23:20:31.202Z,-1.10
2019-01-21T23:22:59.776Z,-1.10
2019-01-21T23:25:28.423Z,-1.10
2019-01-21T23:27:57.010Z,-1.00
2019-01-21T23:30:25.827Z,-1.00
2019-01-21T23:32:54.489Z,-1.00
2019-01-21T23:35:23.057Z,-1.00
2019-01-21T23:37:51.930Z,-1.00
2019-01-21T23:40:21.271Z,-1.00
2019-01-21T23:42:49.865Z,-1.00
2019-01-21T23:45:18.526Z,-0.90
2019-01-21T23:47:47.117Z,-1.00
2019-01-21T23:50:16.932Z,-1.00
2019-01-21T23:52:45.699Z,-1.00
2019-01-21T23:55:14.505Z,-1.10
2019-01-21T23:57:43.234Z,-1.00
